sensor_id;sensor_type;location;lat;lon;timestamp;P1;durP1;ratioP1;P2;durP2;ratioP2
64052;SDS011;50299;49.524;8.536;2023-09-19T00:02:20;0.98;;;0.98;;
64052;SDS011;50299;49.524;8.536;2023-09-19T00:04:46;0.57;;;0.30;;
64052;SDS011;50299;49.524;8.536;2023-09-19T00:07:14;1.23;;;1.17;;
64052;SDS011;50299;49.524;8.536;2023-09-19T00:09:42;1.88;;;1.25;;
64052;SDS011;50299;49.524;8.536;2023-09-19T00:12:10;0.82;;;0.82;;
64052;SDS011;50299;49.524;8.536;2023-09-19T00:14:39;0.98;;;0.98;;
64052;SDS011;50299;49.524;8.536;2023-09-19T00:17:06;0.80;;;0.80;;
64052;SDS011;50299;49.524;8.536;2023-09-19T00:19:37;0.50;;;0.50;;
64052;SDS011;50299;49.524;8.536;2023-09-19T00:22:06;0.82;;;0.70;;
64052;SDS011;50299;49.524;8.536;2023-09-19T00:24:33;1.17;;;1.15;;
64052;SDS011;50299;49.524;8.536;2023-09-19T00:27:00;0.98;;;0.98;;
64052;SDS011;50299;49.524;8.536;2023-09-19T00:29:27;1.02;;;1.02;;
64052;SDS011;50299;49.524;8.536;2023-09-19T00:31:55;1.10;;;1.10;;
64052;SDS011;50299;49.524;8.536;2023-09-19T00:34:23;0.73;;;0.73;;
64052;SDS011;50299;49.524;8.536;2023-09-19T00:36:50;0.90;;;0.90;;
64052;SDS011;50299;49.524;8.536;2023-09-19T00:39:19;0.57;;;0.57;;
64052;SDS011;50299;49.524;8.536;2023-09-19T00:41:46;1.02;;;1.02;;
64052;SDS011;50299;49.524;8.536;2023-09-19T00:44:13;1.00;;;1.00;;
64052;SDS011;50299;49.524;8.536;2023-09-19T00:46:39;0.85;;;0.85;;
64052;SDS011;50299;49.524;8.536;2023-09-19T00:49:07;0.98;;;0.98;;
64052;SDS011;50299;49.524;8.536;2023-09-19T00:51:38;1.27;;;1.20;;
64052;SDS011;50299;49.524;8.536;2023-09-19T00:54:07;0.93;;;0.85;;
64052;SDS011;50299;49.524;8.536;2023-09-19T00:56:35;1.17;;;1.17;;
64052;SDS011;50299;49.524;8.536;2023-09-19T00:59:04;0.73;;;0.50;;
64052;SDS011;50299;49.524;8.536;2023-09-19T01:01:30;0.88;;;0.50;;
64052;SDS011;50299;49.524;8.536;2023-09-19T01:03:57;0.47;;;0.47;;
64052;SDS011;50299;49.524;8.536;2023-09-19T01:06:24;1.17;;;1.08;;
64052;SDS011;50299;49.524;8.536;2023-09-19T01:08:52;0.70;;;0.55;;
64052;SDS011;50299;49.524;8.536;2023-09-19T01:11:26;0.52;;;0.50;;
64052;SDS011;50299;49.524;8.536;2023-09-19T01:14:02;1.02;;;1.02;;
64052;SDS011;50299;49.524;8.536;2023-09-19T01:19:42;0.70;;;0.50;;
64052;SDS011;50299;49.524;8.536;2023-09-19T01:22:42;0.40;;;0.40;;
64052;SDS011;50299;49.524;8.536;2023-09-19T01:25:33;1.75;;;1.10;;
64052;SDS011;50299;49.524;8.536;2023-09-19T01:31:21;0.88;;;0.45;;
64052;SDS011;50299;49.524;8.536;2023-09-19T01:34:01;1.30;;;1.30;;
64052;SDS011;50299;49.524;8.536;2023-09-19T01:36:31;1.95;;;1.00;;
64052;SDS011;50299;49.524;8.536;2023-09-19T01:39:06;1.00;;;0.95;;
64052;SDS011;50299;49.524;8.536;2023-09-19T01:41:39;1.40;;;1.30;;
64052;SDS011;50299;49.524;8.536;2023-09-19T01:44:17;1.23;;;1.23;;
64052;SDS011;50299;49.524;8.536;2023-09-19T01:46:49;0.80;;;0.40;;
64052;SDS011;50299;49.524;8.536;2023-09-19T01:49:18;1.48;;;1.38;;
64052;SDS011;50299;49.524;8.536;2023-09-19T01:54:42;0.70;;;0.60;;
64052;SDS011;50299;49.524;8.536;2023-09-19T01:59:54;0.50;;;0.40;;
64052;SDS011;50299;49.524;8.536;2023-09-19T02:02:42;0.63;;;0.60;;
64052;SDS011;50299;49.524;8.536;2023-09-19T02:05:11;0.63;;;0.63;;
64052;SDS011;50299;49.524;8.536;2023-09-19T02:07:41;1.23;;;1.10;;
64052;SDS011;50299;49.524;8.536;2023-09-19T02:12:36;1.15;;;1.15;;
64052;SDS011;50299;49.524;8.536;2023-09-19T02:15:04;0.43;;;0.43;;
64052;SDS011;50299;49.524;8.536;2023-09-19T02:17:33;0.98;;;0.85;;
64052;SDS011;50299;49.524;8.536;2023-09-19T02:20:00;0.50;;;0.50;;
64052;SDS011;50299;49.524;8.536;2023-09-19T02:22:26;0.90;;;0.90;;
64052;SDS011;50299;49.524;8.536;2023-09-19T02:24:54;1.05;;;0.70;;
64052;SDS011;50299;49.524;8.536;2023-09-19T02:27:20;1.20;;;1.20;;
64052;SDS011;50299;49.524;8.536;2023-09-19T02:29:49;0.80;;;0.80;;
64052;SDS011;50299;49.524;8.536;2023-09-19T02:32:16;1.80;;;0.80;;
64052;SDS011;50299;49.524;8.536;2023-09-19T02:34:44;0.65;;;0.60;;
64052;SDS011;50299;49.524;8.536;2023-09-19T02:37:11;0.47;;;0.47;;
64052;SDS011;50299;49.524;8.536;2023-09-19T02:39:42;0.40;;;0.40;;
64052;SDS011;50299;49.524;8.536;2023-09-19T02:42:09;1.15;;;0.68;;
64052;SDS011;50299;49.524;8.536;2023-09-19T02:44:38;0.90;;;0.90;;
64052;SDS011;50299;49.524;8.536;2023-09-19T02:47:06;1.20;;;0.80;;
64052;SDS011;50299;49.524;8.536;2023-09-19T02:49:32;0.75;;;0.75;;
64052;SDS011;50299;49.524;8.536;2023-09-19T02:51:59;0.60;;;0.60;;
64052;SDS011;50299;49.524;8.536;2023-09-19T02:54:26;0.70;;;0.70;;
64052;SDS011;50299;49.524;8.536;2023-09-19T02:56:52;0.88;;;0.75;;
64052;SDS011;50299;49.524;8.536;2023-09-19T02:59:20;4.78;;;1.00;;
64052;SDS011;50299;49.524;8.536;2023-09-19T03:01:53;1.38;;;1.30;;
64052;SDS011;50299;49.524;8.536;2023-09-19T03:04:20;1.02;;;0.88;;
64052;SDS011;50299;49.524;8.536;2023-09-19T03:06:48;2.50;;;1.08;;
64052;SDS011;50299;49.524;8.536;2023-09-19T03:09:17;0.80;;;0.80;;
64052;SDS011;50299;49.524;8.536;2023-09-19T03:11:45;1.10;;;0.70;;
64052;SDS011;50299;49.524;8.536;2023-09-19T03:14:13;0.60;;;0.60;;
64052;SDS011;50299;49.524;8.536;2023-09-19T03:16:41;0.52;;;0.52;;
64052;SDS011;50299;49.524;8.536;2023-09-19T03:19:08;0.77;;;0.70;;
64052;SDS011;50299;49.524;8.536;2023-09-19T03:24:07;1.52;;;1.25;;
64052;SDS011;50299;49.524;8.536;2023-09-19T03:26:34;1.75;;;1.65;;
64052;SDS011;50299;49.524;8.536;2023-09-19T03:29:05;1.98;;;1.48;;
64052;SDS011;50299;49.524;8.536;2023-09-19T03:31:36;2.80;;;1.58;;
64052;SDS011;50299;49.524;8.536;2023-09-19T03:34:03;1.50;;;1.40;;
64052;SDS011;50299;49.524;8.536;2023-09-19T03:36:30;2.85;;;1.00;;
64052;SDS011;50299;49.524;8.536;2023-09-19T03:38:57;1.25;;;1.25;;
64052;SDS011;50299;49.524;8.536;2023-09-19T03:41:23;0.57;;;0.57;;
64052;SDS011;50299;49.524;8.536;2023-09-19T03:43:50;1.35;;;1.10;;
64052;SDS011;50299;49.524;8.536;2023-09-19T03:46:17;1.88;;;1.02;;
64052;SDS011;50299;49.524;8.536;2023-09-19T03:48:43;1.67;;;0.98;;
64052;SDS011;50299;49.524;8.536;2023-09-19T03:51:10;1.80;;;1.70;;
64052;SDS011;50299;49.524;8.536;2023-09-19T03:53:37;1.73;;;1.63;;
64052;SDS011;50299;49.524;8.536;2023-09-19T03:56:03;2.03;;;1.92;;
64052;SDS011;50299;49.524;8.536;2023-09-19T03:58:30;2.05;;;1.95;;
64052;SDS011;50299;49.524;8.536;2023-09-19T04:00:57;2.60;;;2.00;;
64052;SDS011;50299;49.524;8.536;2023-09-19T04:03:24;2.13;;;2.03;;
64052;SDS011;50299;49.524;8.536;2023-09-19T04:06:01;1.25;;;1.15;;
64052;SDS011;50299;49.524;8.536;2023-09-19T04:08:28;1.60;;;1.50;;
64052;SDS011;50299;49.524;8.536;2023-09-19T04:10:55;1.75;;;1.65;;
64052;SDS011;50299;49.524;8.536;2023-09-19T04:13:23;2.35;;;2.15;;
64052;SDS011;50299;49.524;8.536;2023-09-19T04:15:49;2.13;;;1.80;;
64052;SDS011;50299;49.524;8.536;2023-09-19T04:18:16;1.75;;;1.70;;
64052;SDS011;50299;49.524;8.536;2023-09-19T04:20:50;2.00;;;1.90;;
64052;SDS011;50299;49.524;8.536;2023-09-19T04:23:16;1.33;;;0.85;;
64052;SDS011;50299;49.524;8.536;2023-09-19T04:25:43;1.67;;;1.58;;
64052;SDS011;50299;49.524;8.536;2023-09-19T04:28:12;1.15;;;1.10;;
64052;SDS011;50299;49.524;8.536;2023-09-19T04:30:38;2.45;;;1.02;;
64052;SDS011;50299;49.524;8.536;2023-09-19T04:33:08;1.25;;;1.23;;
64052;SDS011;50299;49.524;8.536;2023-09-19T04:35:40;2.05;;;1.40;;
64052;SDS011;50299;49.524;8.536;2023-09-19T04:38:08;1.77;;;1.67;;
64052;SDS011;50299;49.524;8.536;2023-09-19T04:40:35;2.53;;;2.30;;
64052;SDS011;50299;49.524;8.536;2023-09-19T04:43:01;1.77;;;1.67;;
64052;SDS011;50299;49.524;8.536;2023-09-19T04:45:29;1.80;;;1.70;;
64052;SDS011;50299;49.524;8.536;2023-09-19T04:47:55;1.58;;;1.48;;
64052;SDS011;50299;49.524;8.536;2023-09-19T04:50:22;1.75;;;1.65;;
64052;SDS011;50299;49.524;8.536;2023-09-19T04:52:50;2.25;;;2.03;;
64052;SDS011;50299;49.524;8.536;2023-09-19T04:55:18;1.38;;;1.27;;
64052;SDS011;50299;49.524;8.536;2023-09-19T04:57:45;1.77;;;1.23;;
64052;SDS011;50299;49.524;8.536;2023-09-19T05:00:14;2.25;;;2.05;;
64052;SDS011;50299;49.524;8.536;2023-09-19T05:02:43;1.85;;;1.75;;
64052;SDS011;50299;49.524;8.536;2023-09-19T05:05:10;4.20;;;2.22;;
64052;SDS011;50299;49.524;8.536;2023-09-19T05:07:40;1.80;;;1.77;;
64052;SDS011;50299;49.524;8.536;2023-09-19T05:10:08;1.90;;;1.80;;
64052;SDS011;50299;49.524;8.536;2023-09-19T05:12:36;3.03;;;1.70;;
64052;SDS011;50299;49.524;8.536;2023-09-19T05:15:03;2.00;;;1.90;;
64052;SDS011;50299;49.524;8.536;2023-09-19T05:17:33;2.08;;;1.65;;
64052;SDS011;50299;49.524;8.536;2023-09-19T05:20:00;1.55;;;1.45;;
64052;SDS011;50299;49.524;8.536;2023-09-19T05:22:44;2.17;;;2.05;;
64052;SDS011;50299;49.524;8.536;2023-09-19T05:25:12;1.17;;;1.08;;
64052;SDS011;50299;49.524;8.536;2023-09-19T05:27:46;1.15;;;1.05;;
64052;SDS011;50299;49.524;8.536;2023-09-19T05:30:15;1.85;;;1.75;;
64052;SDS011;50299;49.524;8.536;2023-09-19T05:32:43;1.48;;;1.17;;
64052;SDS011;50299;49.524;8.536;2023-09-19T05:35:10;1.90;;;1.80;;
64052;SDS011;50299;49.524;8.536;2023-09-19T05:37:40;1.42;;;1.33;;
64052;SDS011;50299;49.524;8.536;2023-09-19T05:40:07;1.38;;;1.20;;
64052;SDS011;50299;49.524;8.536;2023-09-19T05:42:38;2.25;;;2.05;;
64052;SDS011;50299;49.524;8.536;2023-09-19T05:45:08;3.03;;;1.75;;
64052;SDS011;50299;49.524;8.536;2023-09-19T05:47:42;1.25;;;1.00;;
64052;SDS011;50299;49.524;8.536;2023-09-19T05:50:13;2.55;;;1.23;;
64052;SDS011;50299;49.524;8.536;2023-09-19T05:52:41;2.75;;;1.95;;
64052;SDS011;50299;49.524;8.536;2023-09-19T05:55:09;1.85;;;1.70;;
64052;SDS011;50299;49.524;8.536;2023-09-19T05:57:37;1.75;;;1.63;;
64052;SDS011;50299;49.524;8.536;2023-09-19T06:00:09;1.83;;;1.20;;
64052;SDS011;50299;49.524;8.536;2023-09-19T06:02:39;1.10;;;1.10;;
64052;SDS011;50299;49.524;8.536;2023-09-19T06:05:09;2.65;;;1.63;;
64052;SDS011;50299;49.524;8.536;2023-09-19T06:07:37;1.20;;;1.10;;
64052;SDS011;50299;49.524;8.536;2023-09-19T06:10:04;0.88;;;0.85;;
64052;SDS011;50299;49.524;8.536;2023-09-19T06:12:38;1.70;;;1.00;;
64052;SDS011;50299;49.524;8.536;2023-09-19T06:17:49;0.80;;;0.80;;
64052;SDS011;50299;49.524;8.536;2023-09-19T06:20:17;2.38;;;1.30;;
64052;SDS011;50299;49.524;8.536;2023-09-19T06:22:46;1.50;;;1.40;;
64052;SDS011;50299;49.524;8.536;2023-09-19T06:25:13;2.95;;;2.25;;
64052;SDS011;50299;49.524;8.536;2023-09-19T06:27:47;1.88;;;1.15;;
64052;SDS011;50299;49.524;8.536;2023-09-19T06:30:17;0.98;;;0.95;;
64052;SDS011;50299;49.524;8.536;2023-09-19T06:32:44;1.90;;;0.80;;
64052;SDS011;50299;49.524;8.536;2023-09-19T06:35:13;3.05;;;1.40;;
64052;SDS011;50299;49.524;8.536;2023-09-19T06:37:44;2.53;;;1.08;;
64052;SDS011;50299;49.524;8.536;2023-09-19T06:40:11;2.58;;;1.42;;
64052;SDS011;50299;49.524;8.536;2023-09-19T06:45:14;1.60;;;1.50;;
64052;SDS011;50299;49.524;8.536;2023-09-19T06:47:46;3.65;;;1.20;;
64052;SDS011;50299;49.524;8.536;2023-09-19T06:50:25;2.53;;;0.95;;
64052;SDS011;50299;49.524;8.536;2023-09-19T06:52:54;1.88;;;0.93;;
64052;SDS011;50299;49.524;8.536;2023-09-19T06:55:24;0.93;;;0.80;;
64052;SDS011;50299;49.524;8.536;2023-09-19T06:57:54;2.80;;;1.20;;
64052;SDS011;50299;49.524;8.536;2023-09-19T07:00:31;4.43;;;1.10;;
64052;SDS011;50299;49.524;8.536;2023-09-19T07:03:08;4.57;;;1.10;;
64052;SDS011;50299;49.524;8.536;2023-09-19T07:05:38;4.35;;;0.95;;
64052;SDS011;50299;49.524;8.536;2023-09-19T07:08:07;3.63;;;1.10;;
64052;SDS011;50299;49.524;8.536;2023-09-19T07:10:34;4.20;;;1.15;;
64052;SDS011;50299;49.524;8.536;2023-09-19T07:13:13;1.25;;;1.15;;
64052;SDS011;50299;49.524;8.536;2023-09-19T07:15:43;4.28;;;2.03;;
64052;SDS011;50299;49.524;8.536;2023-09-19T07:18:13;4.05;;;1.17;;
64052;SDS011;50299;49.524;8.536;2023-09-19T07:20:48;1.73;;;1.63;;
64052;SDS011;50299;49.524;8.536;2023-09-19T07:23:19;0.90;;;0.85;;
64052;SDS011;50299;49.524;8.536;2023-09-19T07:25:47;1.55;;;1.00;;
64052;SDS011;50299;49.524;8.536;2023-09-19T07:28:17;1.33;;;1.13;;
64052;SDS011;50299;49.524;8.536;2023-09-19T07:30:44;1.73;;;1.60;;
64052;SDS011;50299;49.524;8.536;2023-09-19T07:33:11;2.25;;;1.85;;
64052;SDS011;50299;49.524;8.536;2023-09-19T07:35:39;1.60;;;1.40;;
64052;SDS011;50299;49.524;8.536;2023-09-19T07:38:09;2.65;;;1.05;;
64052;SDS011;50299;49.524;8.536;2023-09-19T07:40:38;2.47;;;1.30;;
64052;SDS011;50299;49.524;8.536;2023-09-19T07:43:05;1.45;;;1.33;;
64052;SDS011;50299;49.524;8.536;2023-09-19T07:45:33;1.30;;;1.20;;
64052;SDS011;50299;49.524;8.536;2023-09-19T07:47:59;2.95;;;1.25;;
64052;SDS011;50299;49.524;8.536;2023-09-19T07:50:30;0.80;;;0.80;;
64052;SDS011;50299;49.524;8.536;2023-09-19T07:52:57;1.20;;;1.10;;
64052;SDS011;50299;49.524;8.536;2023-09-19T07:55:25;1.95;;;1.67;;
64052;SDS011;50299;49.524;8.536;2023-09-19T07:57:52;1.67;;;1.10;;
64052;SDS011;50299;49.524;8.536;2023-09-19T08:00:19;1.27;;;1.05;;
64052;SDS011;50299;49.524;8.536;2023-09-19T08:02:46;1.42;;;1.25;;
64052;SDS011;50299;49.524;8.536;2023-09-19T08:05:23;1.98;;;1.02;;
64052;SDS011;50299;49.524;8.536;2023-09-19T08:07:53;2.38;;;1.20;;
64052;SDS011;50299;49.524;8.536;2023-09-19T08:10:20;3.47;;;1.50;;
64052;SDS011;50299;49.524;8.536;2023-09-19T08:12:47;1.38;;;0.85;;
64052;SDS011;50299;49.524;8.536;2023-09-19T08:15:15;1.63;;;1.30;;
64052;SDS011;50299;49.524;8.536;2023-09-19T08:17:43;0.95;;;0.90;;
64052;SDS011;50299;49.524;8.536;2023-09-19T08:20:10;2.13;;;1.40;;
64052;SDS011;50299;49.524;8.536;2023-09-19T08:22:46;0.90;;;0.90;;
64052;SDS011;50299;49.524;8.536;2023-09-19T08:25:19;3.05;;;1.17;;
64052;SDS011;50299;49.524;8.536;2023-09-19T08:27:46;1.20;;;1.08;;
64052;SDS011;50299;49.524;8.536;2023-09-19T08:30:18;3.03;;;1.00;;
64052;SDS011;50299;49.524;8.536;2023-09-19T08:32:51;2.05;;;0.93;;
64052;SDS011;50299;49.524;8.536;2023-09-19T08:35:19;1.20;;;1.05;;
64052;SDS011;50299;49.524;8.536;2023-09-19T08:37:46;1.10;;;1.00;;
64052;SDS011;50299;49.524;8.536;2023-09-19T08:40:12;1.65;;;1.05;;
64052;SDS011;50299;49.524;8.536;2023-09-19T08:42:51;1.45;;;1.33;;
64052;SDS011;50299;49.524;8.536;2023-09-19T08:45:22;1.50;;;1.20;;
64052;SDS011;50299;49.524;8.536;2023-09-19T08:50:53;2.55;;;1.85;;
64052;SDS011;50299;49.524;8.536;2023-09-19T08:53:31;1.25;;;1.15;;
64052;SDS011;50299;49.524;8.536;2023-09-19T08:55:59;1.50;;;1.23;;
64052;SDS011;50299;49.524;8.536;2023-09-19T08:58:30;2.90;;;2.15;;
64052;SDS011;50299;49.524;8.536;2023-09-19T09:01:01;2.05;;;1.52;;
64052;SDS011;50299;49.524;8.536;2023-09-19T09:03:30;1.42;;;1.27;;
64052;SDS011;50299;49.524;8.536;2023-09-19T09:05:59;1.30;;;1.20;;
64052;SDS011;50299;49.524;8.536;2023-09-19T09:08:26;1.38;;;1.27;;
64052;SDS011;50299;49.524;8.536;2023-09-19T09:10:53;3.33;;;2.00;;
64052;SDS011;50299;49.524;8.536;2023-09-19T09:13:20;1.98;;;1.70;;
64052;SDS011;50299;49.524;8.536;2023-09-19T09:15:48;7.95;;;1.90;;
64052;SDS011;50299;49.524;8.536;2023-09-19T09:18:14;2.45;;;1.20;;
64052;SDS011;50299;49.524;8.536;2023-09-19T09:20:43;1.60;;;1.50;;
64052;SDS011;50299;49.524;8.536;2023-09-19T09:23:11;2.20;;;1.30;;
64052;SDS011;50299;49.524;8.536;2023-09-19T09:25:50;1.77;;;1.60;;
64052;SDS011;50299;49.524;8.536;2023-09-19T09:28:30;1.38;;;1.27;;
64052;SDS011;50299;49.524;8.536;2023-09-19T09:31:00;1.77;;;1.13;;
64052;SDS011;50299;49.524;8.536;2023-09-19T09:33:34;3.33;;;1.17;;
64052;SDS011;50299;49.524;8.536;2023-09-19T09:36:02;2.45;;;1.10;;
64052;SDS011;50299;49.524;8.536;2023-09-19T09:38:45;2.00;;;1.20;;
64052;SDS011;50299;49.524;8.536;2023-09-19T09:41:15;1.95;;;1.02;;
64052;SDS011;50299;49.524;8.536;2023-09-19T09:43:53;1.77;;;1.15;;
64052;SDS011;50299;49.524;8.536;2023-09-19T09:46:25;1.05;;;0.95;;
64052;SDS011;50299;49.524;8.536;2023-09-19T09:54:12;1.48;;;1.20;;
64052;SDS011;50299;49.524;8.536;2023-09-19T09:57:01;1.83;;;1.35;;
64052;SDS011;50299;49.524;8.536;2023-09-19T09:59:50;1.25;;;1.15;;
64052;SDS011;50299;49.524;8.536;2023-09-19T10:02:35;1.20;;;1.10;;
64052;SDS011;50299;49.524;8.536;2023-09-19T10:05:20;1.33;;;1.23;;
64052;SDS011;50299;49.524;8.536;2023-09-19T10:07:53;1.35;;;1.17;;
64052;SDS011;50299;49.524;8.536;2023-09-19T10:10:34;1.88;;;1.45;;
64052;SDS011;50299;49.524;8.536;2023-09-19T10:13:20;2.15;;;1.30;;
64052;SDS011;50299;49.524;8.536;2023-09-19T10:15:50;1.98;;;0.93;;
64052;SDS011;50299;49.524;8.536;2023-09-19T10:18:20;1.75;;;1.20;;
64052;SDS011;50299;49.524;8.536;2023-09-19T10:20:47;1.58;;;0.77;;
64052;SDS011;50299;49.524;8.536;2023-09-19T10:23:19;1.85;;;1.75;;
64052;SDS011;50299;49.524;8.536;2023-09-19T10:25:50;2.45;;;1.20;;
64052;SDS011;50299;49.524;8.536;2023-09-19T10:28:19;2.03;;;1.27;;
64052;SDS011;50299;49.524;8.536;2023-09-19T10:30:52;2.35;;;1.02;;
64052;SDS011;50299;49.524;8.536;2023-09-19T10:33:21;2.38;;;1.02;;
64052;SDS011;50299;49.524;8.536;2023-09-19T10:35:57;0.90;;;0.80;;
64052;SDS011;50299;49.524;8.536;2023-09-19T10:38:27;1.25;;;0.95;;
64052;SDS011;50299;49.524;8.536;2023-09-19T10:40:57;0.75;;;0.75;;
64052;SDS011;50299;49.524;8.536;2023-09-19T10:43:31;2.13;;;0.80;;
64052;SDS011;50299;49.524;8.536;2023-09-19T10:46:03;1.45;;;0.70;;
64052;SDS011;50299;49.524;8.536;2023-09-19T10:48:34;1.17;;;0.80;;
64052;SDS011;50299;49.524;8.536;2023-09-19T10:51:02;0.75;;;0.73;;
64052;SDS011;50299;49.524;8.536;2023-09-19T10:56:13;1.58;;;0.60;;
64052;SDS011;50299;49.524;8.536;2023-09-19T10:59:09;1.25;;;0.70;;
64052;SDS011;50299;49.524;8.536;2023-09-19T11:01:44;0.63;;;0.60;;
64052;SDS011;50299;49.524;8.536;2023-09-19T11:07:06;2.00;;;0.90;;
64052;SDS011;50299;49.524;8.536;2023-09-19T11:09:51;0.60;;;0.60;;
64052;SDS011;50299;49.524;8.536;2023-09-19T11:15:07;0.50;;;0.50;;
64052;SDS011;50299;49.524;8.536;2023-09-19T11:17:37;2.28;;;0.93;;
64052;SDS011;50299;49.524;8.536;2023-09-19T11:23:16;1.83;;;0.90;;
64052;SDS011;50299;49.524;8.536;2023-09-19T11:30:48;1.38;;;0.90;;
64052;SDS011;50299;49.524;8.536;2023-09-19T11:33:26;1.58;;;0.50;;
64052;SDS011;50299;49.524;8.536;2023-09-19T11:36:13;1.88;;;0.77;;
64052;SDS011;50299;49.524;8.536;2023-09-19T11:44:38;1.73;;;0.70;;
64052;SDS011;50299;49.524;8.536;2023-09-19T11:49:27;1.27;;;0.70;;
64052;SDS011;50299;49.524;8.536;2023-09-19T11:52:00;5.13;;;0.98;;
64052;SDS011;50299;49.524;8.536;2023-09-19T11:54:35;1.63;;;0.82;;
64052;SDS011;50299;49.524;8.536;2023-09-19T11:57:06;0.98;;;0.70;;
64052;SDS011;50299;49.524;8.536;2023-09-19T11:59:38;1.90;;;1.20;;
64052;SDS011;50299;49.524;8.536;2023-09-19T12:02:05;0.60;;;0.60;;
64052;SDS011;50299;49.524;8.536;2023-09-19T12:04:36;0.77;;;0.77;;
64052;SDS011;50299;49.524;8.536;2023-09-19T12:07:04;1.98;;;0.73;;
64052;SDS011;50299;49.524;8.536;2023-09-19T12:09:42;2.67;;;0.90;;
64052;SDS011;50299;49.524;8.536;2023-09-19T12:12:22;1.20;;;0.60;;
64052;SDS011;50299;49.524;8.536;2023-09-19T12:14:50;0.55;;;0.55;;
64052;SDS011;50299;49.524;8.536;2023-09-19T12:17:17;3.55;;;0.70;;
64052;SDS011;50299;49.524;8.536;2023-09-19T12:19:52;0.55;;;0.55;;
64052;SDS011;50299;49.524;8.536;2023-09-19T12:24:50;0.82;;;0.82;;
64052;SDS011;50299;49.524;8.536;2023-09-19T12:27:17;1.70;;;0.65;;
64052;SDS011;50299;49.524;8.536;2023-09-19T12:29:47;1.45;;;0.40;;
64052;SDS011;50299;49.524;8.536;2023-09-19T12:32:15;0.80;;;0.70;;
64052;SDS011;50299;49.524;8.536;2023-09-19T12:34:50;1.17;;;0.40;;
64052;SDS011;50299;49.524;8.536;2023-09-19T12:37:19;0.90;;;0.60;;
64052;SDS011;50299;49.524;8.536;2023-09-19T12:39:50;4.00;;;0.75;;
64052;SDS011;50299;49.524;8.536;2023-09-19T12:42:21;2.15;;;0.65;;
64052;SDS011;50299;49.524;8.536;2023-09-19T12:44:50;0.93;;;0.80;;
64052;SDS011;50299;49.524;8.536;2023-09-19T12:47:23;1.27;;;1.27;;
64052;SDS011;50299;49.524;8.536;2023-09-19T12:50:06;7.93;;;1.00;;
64052;SDS011;50299;49.524;8.536;2023-09-19T12:52:47;0.77;;;0.75;;
64052;SDS011;50299;49.524;8.536;2023-09-19T12:55:19;3.10;;;1.38;;
64052;SDS011;50299;49.524;8.536;2023-09-19T12:58:01;1.23;;;0.70;;
64052;SDS011;50299;49.524;8.536;2023-09-19T13:00:45;0.55;;;0.52;;
64052;SDS011;50299;49.524;8.536;2023-09-19T13:03:18;0.70;;;0.50;;
64052;SDS011;50299;49.524;8.536;2023-09-19T13:05:58;0.63;;;0.60;;
64052;SDS011;50299;49.524;8.536;2023-09-19T13:08:28;0.90;;;0.65;;
64052;SDS011;50299;49.524;8.536;2023-09-19T13:13:30;0.73;;;0.50;;
64052;SDS011;50299;49.524;8.536;2023-09-19T13:15:57;0.70;;;0.70;;
64052;SDS011;50299;49.524;8.536;2023-09-19T13:18:24;1.02;;;0.60;;
64052;SDS011;50299;49.524;8.536;2023-09-19T13:21:06;2.45;;;0.70;;
64052;SDS011;50299;49.524;8.536;2023-09-19T13:23:38;1.27;;;0.95;;
64052;SDS011;50299;49.524;8.536;2023-09-19T13:26:05;0.50;;;0.50;;
64052;SDS011;50299;49.524;8.536;2023-09-19T13:28:33;0.82;;;0.50;;
64052;SDS011;50299;49.524;8.536;2023-09-19T13:31:00;1.42;;;0.63;;
64052;SDS011;50299;49.524;8.536;2023-09-19T13:33:27;1.17;;;0.60;;
64052;SDS011;50299;49.524;8.536;2023-09-19T13:35:56;2.22;;;0.90;;
64052;SDS011;50299;49.524;8.536;2023-09-19T13:38:23;1.67;;;0.57;;
64052;SDS011;50299;49.524;8.536;2023-09-19T13:40:49;2.75;;;0.70;;
64052;SDS011;50299;49.524;8.536;2023-09-19T13:43:18;1.27;;;0.80;;
64052;SDS011;50299;49.524;8.536;2023-09-19T13:45:48;0.85;;;0.55;;
64052;SDS011;50299;49.524;8.536;2023-09-19T13:48:15;2.53;;;0.60;;
64052;SDS011;50299;49.524;8.536;2023-09-19T13:50:48;0.65;;;0.60;;
64052;SDS011;50299;49.524;8.536;2023-09-19T13:53:17;1.33;;;0.70;;
64052;SDS011;50299;49.524;8.536;2023-09-19T13:55:44;1.55;;;0.80;;
64052;SDS011;50299;49.524;8.536;2023-09-19T13:58:14;0.50;;;0.50;;
64052;SDS011;50299;49.524;8.536;2023-09-19T14:00:45;1.15;;;0.70;;
64052;SDS011;50299;49.524;8.536;2023-09-19T14:03:12;0.75;;;0.60;;
64052;SDS011;50299;49.524;8.536;2023-09-19T14:05:42;1.63;;;0.77;;
64052;SDS011;50299;49.524;8.536;2023-09-19T14:08:08;0.30;;;0.30;;
64052;SDS011;50299;49.524;8.536;2023-09-19T14:10:37;0.98;;;0.80;;
64052;SDS011;50299;49.524;8.536;2023-09-19T14:15:36;1.92;;;0.85;;
64052;SDS011;50299;49.524;8.536;2023-09-19T14:18:13;4.90;;;1.05;;
64052;SDS011;50299;49.524;8.536;2023-09-19T14:20:42;1.15;;;0.70;;
64052;SDS011;50299;49.524;8.536;2023-09-19T14:23:17;0.80;;;0.65;;
64052;SDS011;50299;49.524;8.536;2023-09-19T14:25:43;2.00;;;0.50;;
64052;SDS011;50299;49.524;8.536;2023-09-19T14:28:15;0.68;;;0.68;;
64052;SDS011;50299;49.524;8.536;2023-09-19T14:30:48;0.40;;;0.30;;
64052;SDS011;50299;49.524;8.536;2023-09-19T14:33:15;1.17;;;0.60;;
64052;SDS011;50299;49.524;8.536;2023-09-19T14:35:42;1.58;;;1.48;;
64052;SDS011;50299;49.524;8.536;2023-09-19T14:38:09;1.15;;;1.13;;
64052;SDS011;50299;49.524;8.536;2023-09-19T14:40:35;0.60;;;0.60;;
64052;SDS011;50299;49.524;8.536;2023-09-19T14:43:03;0.55;;;0.40;;
64052;SDS011;50299;49.524;8.536;2023-09-19T14:45:36;1.10;;;0.88;;
64052;SDS011;50299;49.524;8.536;2023-09-19T14:48:04;1.45;;;1.35;;
64052;SDS011;50299;49.524;8.536;2023-09-19T14:50:40;0.93;;;0.93;;
64052;SDS011;50299;49.524;8.536;2023-09-19T14:53:07;1.45;;;0.82;;
64052;SDS011;50299;49.524;8.536;2023-09-19T14:55:37;4.65;;;0.70;;
64052;SDS011;50299;49.524;8.536;2023-09-19T14:58:10;1.35;;;0.45;;
64052;SDS011;50299;49.524;8.536;2023-09-19T15:00:38;0.40;;;0.40;;
64052;SDS011;50299;49.524;8.536;2023-09-19T15:03:05;0.90;;;0.43;;
64052;SDS011;50299;49.524;8.536;2023-09-19T15:05:32;0.50;;;0.50;;
64052;SDS011;50299;49.524;8.536;2023-09-19T15:08:00;1.17;;;0.55;;
64052;SDS011;50299;49.524;8.536;2023-09-19T15:10:30;0.45;;;0.45;;
64052;SDS011;50299;49.524;8.536;2023-09-19T15:12:57;1.00;;;0.63;;
64052;SDS011;50299;49.524;8.536;2023-09-19T15:15:23;1.48;;;0.63;;
64052;SDS011;50299;49.524;8.536;2023-09-19T15:17:50;1.63;;;0.80;;
64052;SDS011;50299;49.524;8.536;2023-09-19T15:20:17;1.52;;;0.63;;
64052;SDS011;50299;49.524;8.536;2023-09-19T15:22:44;0.47;;;0.47;;
64052;SDS011;50299;49.524;8.536;2023-09-19T15:25:12;0.73;;;0.55;;
64052;SDS011;50299;49.524;8.536;2023-09-19T15:27:39;0.57;;;0.57;;
64052;SDS011;50299;49.524;8.536;2023-09-19T15:30:09;1.42;;;0.70;;
64052;SDS011;50299;49.524;8.536;2023-09-19T15:32:37;0.55;;;0.50;;
64052;SDS011;50299;49.524;8.536;2023-09-19T15:35:03;0.43;;;0.43;;
64052;SDS011;50299;49.524;8.536;2023-09-19T15:37:32;0.95;;;0.75;;
64052;SDS011;50299;49.524;8.536;2023-09-19T15:39:59;0.55;;;0.55;;
64052;SDS011;50299;49.524;8.536;2023-09-19T15:42:28;0.60;;;0.60;;
64052;SDS011;50299;49.524;8.536;2023-09-19T15:44:57;0.60;;;0.60;;
64052;SDS011;50299;49.524;8.536;2023-09-19T15:47:24;0.63;;;0.63;;
64052;SDS011;50299;49.524;8.536;2023-09-19T15:49:50;0.57;;;0.57;;
64052;SDS011;50299;49.524;8.536;2023-09-19T15:52:17;0.45;;;0.43;;
64052;SDS011;50299;49.524;8.536;2023-09-19T15:57:12;1.83;;;0.90;;
64052;SDS011;50299;49.524;8.536;2023-09-19T15:59:40;0.50;;;0.50;;
64052;SDS011;50299;49.524;8.536;2023-09-19T16:02:06;0.95;;;0.65;;
64052;SDS011;50299;49.524;8.536;2023-09-19T16:04:33;0.60;;;0.60;;
64052;SDS011;50299;49.524;8.536;2023-09-19T16:07:00;1.95;;;0.80;;
64052;SDS011;50299;49.524;8.536;2023-09-19T16:09:27;1.33;;;0.60;;
64052;SDS011;50299;49.524;8.536;2023-09-19T16:11:54;1.02;;;0.50;;